createdAt,value
2019-01-29T00:01:21.955Z,0.70
2019-01-29T00:03:51.350Z,0.70
2019-01-29T00:06:20.714Z,0.70
2019-01-29T00:08:50.154Z,0.70
2019-01-29T00:11:19.621Z,0.70
2019-01-29T00:13:49.007Z,0.70
2019-01-29T00:16:18.713Z,0.70
2019-01-29T00:18:48.110Z,0.70
2019-01-29T00:21:17.410Z,0.70
2019-01-29T00:23:46.886Z,0.70
2019-01-29T00:26:16.215Z,0.70
2019-01-29T00:28:45.618Z,0.70
2019-01-29T00:31:15.078Z,0.70
2019-01-29T00:33:44.768Z,0.70
2019-01-29T00:36:14.282Z,0.60
2019-01-29T00:38:43.699Z,0.70
2019-01-29T00:41:13.039Z,0.60
2019-01-29T00:43:42.441Z,0.60
2019-01-29T00:46:11.895Z,0.60
2019-01-29T00:48:41.261Z,0.60
2019-01-29T00:51:10.838Z,0.60
2019-01-29T00:53:40.293Z,0.60
2019-01-29T00:56:09.707Z,0.60
2019-01-29T00:58:39.053Z,0.60
2019-01-29T01:01:08.838Z,0.60
2019-01-29T01:03:38.230Z,0.60
2019-01-29T01:06:07.670Z,0.60
2019-01-29T01:08:38.484Z,0.60
2019-01-29T01:11:08.174Z,0.60
2019-01-29T01:13:37.524Z,0.50
2019-01-29T01:16:07.292Z,0.50
2019-01-29T01:18:36.740Z,0.50
2019-01-29T01:21:06.174Z,0.60
2019-01-29T01:23:35.625Z,0.60
2019-01-29T01:26:04.925Z,0.50
2019-01-29T01:28:34.223Z,0.50
2019-01-29T01:31:03.590Z,0.50
2019-01-29T01:33:32.980Z,0.50
2019-01-29T01:36:02.706Z,0.50
2019-01-29T01:38:32.353Z,0.50
2019-01-29T01:41:04.675Z,0.50
2019-01-29T01:43:34.025Z,0.40
2019-01-29T01:46:03.573Z,0.50
2019-01-29T01:48:33.009Z,0.40
2019-01-29T01:51:02.385Z,0.40
2019-01-29T01:53:31.743Z,0.40
2019-01-29T01:56:01.238Z,0.40
2019-01-29T01:58:30.642Z,0.30
2019-01-29T02:01:00.123Z,0.30
2019-01-29T02:03:29.505Z,0.20
2019-01-29T02:05:59.077Z,0.20
2019-01-29T02:08:28.507Z,0.20
2019-01-29T02:10:57.850Z,0.20
2019-01-29T02:13:27.285Z,0.10
2019-01-29T02:15:56.634Z,0.20
2019-01-29T02:18:25.985Z,0.10
2019-01-29T02:20:55.433Z,0.10
2019-01-29T02:23:24.755Z,0.10
2019-01-29T02:25:57.355Z,0.10
2019-01-29T02:28:26.806Z,0.10
2019-01-29T02:30:56.141Z,0.10
2019-01-29T02:33:25.551Z,0.10
2019-01-29T02:35:55.026Z,0.00
2019-01-29T02:38:24.529Z,0.10
2019-01-29T02:40:53.837Z,0.10
2019-01-29T02:43:23.237Z,0.10
2019-01-29T02:45:52.567Z,0.10
2019-01-29T02:48:22.048Z,0.00
2019-01-29T02:50:51.710Z,0.00
2019-01-29T02:53:21.150Z,0.00
2019-01-29T02:55:50.500Z,0.00
2019-01-29T02:58:19.900Z,0.00
2019-01-29T03:00:49.373Z,-0.10
2019-01-29T03:03:18.795Z,-0.10
2019-01-29T03:05:48.189Z,-0.10
2019-01-29T03:08:17.694Z,-0.10
2019-01-29T03:10:47.119Z,-0.10
2019-01-29T03:13:16.492Z,-0.10
2019-01-29T03:15:45.885Z,-0.20
2019-01-29T03:18:15.359Z,-0.10
2019-01-29T03:20:44.857Z,-0.20
2019-01-29T03:23:14.306Z,-0.10
2019-01-29T03:25:43.704Z,-0.10
2019-01-29T03:28:13.160Z,-0.10
2019-01-29T03:30:42.510Z,-0.10
2019-01-29T03:33:11.975Z,-0.10
2019-01-29T03:35:41.305Z,-0.10
2019-01-29T03:38:10.751Z,-0.10
2019-01-29T03:40:40.116Z,0.00
2019-01-29T03:43:09.772Z,-0.10
2019-01-29T03:45:39.129Z,0.00
2019-01-29T03:48:08.570Z,0.00
2019-01-29T03:50:37.920Z,0.00
2019-01-29T03:53:07.372Z,0.10
2019-01-29T03:55:36.780Z,0.00
2019-01-29T03:58:06.325Z,0.00
2019-01-29T04:00:35.740Z,0.00
2019-01-29T04:03:05.242Z,0.10
2019-01-29T04:05:34.651Z,0.00
2019-01-29T04:08:04.240Z,0.00
2019-01-29T04:10:33.715Z,0.00
2019-01-29T04:13:03.117Z,0.00
2019-01-29T04:15:32.499Z,0.00
2019-01-29T04:18:01.947Z,-0.10
2019-01-29T04:20:31.446Z,-0.10
2019-01-29T04:23:00.918Z,-0.10
2019-01-29T04:25:30.339Z,-0.10
2019-01-29T04:27:59.764Z,0.00
2019-01-29T04:30:29.182Z,0.00
2019-01-29T04:32:58.632Z,0.00
2019-01-29T04:35:27.969Z,0.00
2019-01-29T04:37:57.378Z,0.00
2019-01-29T04:40:26.838Z,0.00
2019-01-29T04:42:56.250Z,0.00
2019-01-29T04:45:25.586Z,0.00
2019-01-29T04:47:55.045Z,0.00
2019-01-29T04:50:24.450Z,0.00
2019-01-29T04:52:53.903Z,0.10
2019-01-29T04:55:23.442Z,0.00
2019-01-29T04:57:52.893Z,0.00
2019-01-29T05:00:24.582Z,0.00
2019-01-29T05:02:54.131Z,0.00
2019-01-29T05:05:23.917Z,0.00
2019-01-29T05:07:53.275Z,0.00
2019-01-29T05:10:23.053Z,0.00
2019-01-29T05:12:52.516Z,0.00
2019-01-29T05:15:22.238Z,0.00
2019-01-29T05:17:51.627Z,0.00
2019-01-29T05:20:22.679Z,0.00
2019-01-29T05:22:52.192Z,0.00
2019-01-29T05:25:21.715Z,0.00
2019-01-29T05:27:51.243Z,0.00
2019-01-29T05:30:22.928Z,0.00
2019-01-29T05:32:52.599Z,0.10
2019-01-29T05:35:22.093Z,0.10
2019-01-29T05:37:51.658Z,0.10
2019-01-29T05:40:22.511Z,0.10
2019-01-29T05:42:51.863Z,0.10
2019-01-29T05:45:22.452Z,0.10
2019-01-29T05:47:51.790Z,0.10
2019-01-29T05:50:21.183Z,0.10
2019-01-29T05:52:50.773Z,0.10
2019-01-29T05:55:20.096Z,0.10
2019-01-29T05:57:49.455Z,0.10
2019-01-29T06:00:21.919Z,0.10
2019-01-29T06:02:51.271Z,0.10
2019-01-29T06:05:20.719Z,0.10
2019-01-29T06:07:50.144Z,0.10
2019-01-29T06:10:19.874Z,0.20
2019-01-29T06:12:49.323Z,0.20
2019-01-29T06:15:19.454Z,0.20
2019-01-29T06:17:48.841Z,0.20
2019-01-29T06:20:20.587Z,0.20
2019-01-29T06:22:50.162Z,0.20
2019-01-29T06:25:19.592Z,0.20
2019-01-29T06:27:49.035Z,0.20
2019-01-29T06:30:19.441Z,0.20
2019-01-29T06:32:49.259Z,0.10
2019-01-29T06:35:19.202Z,0.20
2019-01-29T06:37:48.519Z,0.20
2019-01-29T06:40:20.734Z,0.20
2019-01-29T06:42:51.242Z,0.20
2019-01-29T06:45:21.427Z,0.20
2019-01-29T06:47:51.045Z,0.20
2019-01-29T06:50:22.465Z,0.10
2019-01-29T06:52:51.885Z,0.10
2019-01-29T06:55:22.313Z,0.10
2019-01-29T06:57:55.679Z,0.10
2019-01-29T07:00:25.366Z,0.10
2019-01-29T07:02:55.153Z,0.10
2019-01-29T07:05:24.619Z,0.10
2019-01-29T07:07:53.949Z,0.10
2019-01-29T07:10:23.508Z,0.10
2019-01-29T07:12:53.126Z,0.20
2019-01-29T07:15:42.779Z,0.20
2019-01-29T07:18:31.250Z,0.30
2019-01-29T07:21:01.142Z,0.30
2019-01-29T07:23:30.601Z,0.30
2019-01-29T07:26:01.953Z,0.40
2019-01-29T07:28:31.629Z,0.40
2019-01-29T07:31:00.952Z,0.40
2019-01-29T07:33:30.405Z,0.40
2019-01-29T07:35:59.755Z,0.40
2019-01-29T07:38:29.267Z,0.50
2019-01-29T07:40:58.714Z,0.60
2019-01-29T07:43:28.057Z,0.60
2019-01-29T07:45:57.631Z,0.70
2019-01-29T07:48:26.981Z,0.70
2019-01-29T07:50:56.434Z,0.80
2019-01-29T07:53:25.803Z,0.80
2019-01-29T07:55:55.180Z,0.80
2019-01-29T07:58:24.667Z,0.90
2019-01-29T08:00:54.279Z,1.00
2019-01-29T08:03:23.681Z,1.00
2019-01-29T08:05:53.185Z,1.10
2019-01-29T08:08:22.851Z,1.10
2019-01-29T08:10:52.193Z,1.20
2019-01-29T08:13:21.657Z,1.10
2019-01-29T08:15:51.033Z,1.20
2019-01-29T08:18:20.720Z,1.20
2019-01-29T08:20:50.174Z,1.20
2019-01-29T08:23:19.546Z,1.20
2019-01-29T08:25:48.958Z,1.20
2019-01-29T08:28:18.331Z,1.20
2019-01-29T08:30:47.721Z,1.20
2019-01-29T08:33:17.349Z,1.20
2019-01-29T08:35:46.782Z,1.20
2019-01-29T08:38:16.258Z,1.20
2019-01-29T08:40:45.633Z,1.30
2019-01-29T08:43:15.097Z,1.30
2019-01-29T08:45:44.470Z,1.30
2019-01-29T08:48:13.887Z,1.30
2019-01-29T08:50:43.317Z,1.30
2019-01-29T08:53:12.643Z,1.30
2019-01-29T08:55:42.174Z,1.40
2019-01-29T08:58:11.850Z,1.40
2019-01-29T09:00:41.266Z,1.40
2019-01-29T09:03:10.749Z,1.40
2019-01-29T09:05:40.292Z,1.40
2019-01-29T09:08:09.749Z,1.50
2019-01-29T09:10:40.281Z,1.50
2019-01-29T09:13:09.899Z,1.50
2019-01-29T09:15:39.308Z,1.60
2019-01-29T09:18:08.702Z,1.60
2019-01-29T09:20:38.309Z,1.70
2019-01-29T09:23:07.749Z,1.70
2019-01-29T09:25:37.246Z,1.70
2019-01-29T09:28:06.690Z,1.70
2019-01-29T09:30:35.980Z,1.70
2019-01-29T09:33:05.784Z,1.70
2019-01-29T09:35:35.202Z,1.80
2019-01-29T09:38:04.691Z,1.90
2019-01-29T09:40:34.337Z,1.90
2019-01-29T09:43:03.842Z,2.00
2019-01-29T09:45:33.260Z,2.10
2019-01-29T09:48:02.880Z,2.10
2019-01-29T09:50:32.283Z,2.10
2019-01-29T09:53:01.673Z,2.10
2019-01-29T09:55:31.114Z,2.10
2019-01-29T09:58:00.532Z,2.10
2019-01-29T10:00:36.637Z,2.10
2019-01-29T10:03:06.625Z,2.00
2019-01-29T10:05:36.142Z,2.00
2019-01-29T10:08:06.775Z,1.90
2019-01-29T10:10:36.174Z,2.00
2019-01-29T10:13:06.049Z,1.90
2019-01-29T10:15:36.584Z,1.90
2019-01-29T10:18:06.116Z,1.90
2019-01-29T10:20:36.156Z,1.90
2019-01-29T10:23:05.647Z,1.90
2019-01-29T10:25:37.901Z,1.90
2019-01-29T10:28:06.654Z,1.90
2019-01-29T10:30:36.005Z,1.80
2019-01-29T10:33:05.547Z,1.90
2019-01-29T10:35:34.944Z,1.80
2019-01-29T10:38:04.628Z,1.90
2019-01-29T10:40:34.189Z,1.90
2019-01-29T10:43:03.881Z,1.90
2019-01-29T10:45:33.293Z,1.90
2019-01-29T10:48:02.823Z,1.90
2019-01-29T10:50:32.734Z,1.90
2019-01-29T10:53:02.103Z,1.90
2019-01-29T10:55:31.453Z,1.90
2019-01-29T10:58:00.907Z,1.90
2019-01-29T11:00:36.050Z,1.90
2019-01-29T11:03:06.437Z,2.00
2019-01-29T11:05:36.033Z,2.00
2019-01-29T11:08:05.986Z,2.10
2019-01-29T11:10:35.336Z,2.10
2019-01-29T11:13:04.961Z,2.10
2019-01-29T11:15:36.675Z,2.20
2019-01-29T11:18:09.065Z,2.20
2019-01-29T11:20:38.713Z,2.20
2019-01-29T11:23:08.243Z,2.20
2019-01-29T11:25:37.588Z,2.30
2019-01-29T11:28:07.716Z,2.30
2019-01-29T11:30:37.106Z,2.30
2019-01-29T11:33:07.417Z,2.30
2019-01-29T11:35:36.789Z,2.40
2019-01-29T11:38:06.543Z,2.60
2019-01-29T11:40:36.249Z,2.50
2019-01-29T11:43:06.877Z,2.70
2019-01-29T11:45:39.802Z,2.50
2019-01-29T11:48:09.165Z,2.50
2019-01-29T11:50:38.611Z,2.40
2019-01-29T11:53:08.069Z,2.40
2019-01-29T11:55:37.482Z,2.40
2019-01-29T11:58:06.970Z,2.30
2019-01-29T12:00:58.758Z,2.30
2019-01-29T12:03:28.285Z,2.30
2019-01-29T12:05:57.814Z,2.30
2019-01-29T12:08:27.293Z,2.30
2019-01-29T12:10:56.724Z,2.30
2019-01-29T12:13:26.141Z,2.30
2019-01-29T12:15:55.706Z,2.30
2019-01-29T12:18:25.026Z,2.30
2019-01-29T12:20:54.510Z,2.30
2019-01-29T12:23:23.979Z,2.30
2019-01-29T12:25:53.346Z,2.30
2019-01-29T12:28:22.813Z,2.30
2019-01-29T12:30:52.317Z,2.30
2019-01-29T12:33:21.845Z,2.30
2019-01-29T12:35:51.284Z,2.30
2019-01-29T12:38:20.653Z,2.30
2019-01-29T12:40:50.126Z,2.30
2019-01-29T12:43:19.554Z,2.40
2019-01-29T12:45:49.128Z,2.40
2019-01-29T12:48:18.637Z,2.40
2019-01-29T12:50:52.951Z,2.30
2019-01-29T12:53:25.385Z,2.30
2019-01-29T12:55:54.806Z,2.40
2019-01-29T12:58:24.448Z,2.30
2019-01-29T13:00:56.207Z,2.30
2019-01-29T13:03:25.526Z,2.30
2019-01-29T13:05:55.141Z,2.30
2019-01-29T13:08:24.756Z,2.30
2019-01-29T13:10:54.131Z,2.30
2019-01-29T13:13:23.845Z,2.30
2019-01-29T13:15:53.262Z,2.30
2019-01-29T13:18:23.160Z,2.30
2019-01-29T13:20:52.821Z,2.30
2019-01-29T13:23:22.208Z,2.30
2019-01-29T13:25:51.726Z,2.30
2019-01-29T13:28:21.305Z,2.20
2019-01-29T13:30:50.773Z,2.20
2019-01-29T13:33:20.111Z,2.20
2019-01-29T13:35:49.710Z,2.20
2019-01-29T13:38:19.355Z,2.20
2019-01-29T13:40:48.911Z,2.20
2019-01-29T13:43:18.419Z,2.10
2019-01-29T13:45:47.972Z,2.10
2019-01-29T13:48:17.325Z,2.10
2019-01-29T13:51:01.954Z,2.10
2019-01-29T13:53:31.334Z,2.10
2019-01-29T13:56:00.693Z,2.10
2019-01-29T13:58:30.157Z,2.10
2019-01-29T14:00:59.482Z,2.10
2019-01-29T14:03:29.098Z,2.00
2019-01-29T14:05:58.563Z,2.00
2019-01-29T14:08:27.904Z,2.00
2019-01-29T14:10:57.353Z,1.90
2019-01-29T14:13:26.729Z,1.90
2019-01-29T14:15:57.862Z,1.90
2019-01-29T14:18:32.338Z,1.90
2019-01-29T14:21:02.245Z,1.90
2019-01-29T14:23:31.847Z,1.90
2019-01-29T14:26:01.278Z,1.90
2019-01-29T14:28:30.763Z,1.90
2019-01-29T14:31:00.314Z,1.90
2019-01-29T14:33:29.727Z,1.80
2019-01-29T14:36:01.065Z,1.80
2019-01-29T14:39:07.500Z,1.80
2019-01-29T14:41:37.217Z,1.80
2019-01-29T14:44:10.049Z,1.80
2019-01-29T14:46:39.507Z,1.80
2019-01-29T14:49:09.073Z,1.80
2019-01-29T14:51:38.448Z,1.80
2019-01-29T14:54:08.014Z,1.80
2019-01-29T14:56:37.646Z,1.80
2019-01-29T14:59:07.039Z,1.70
2019-01-29T15:01:36.886Z,1.70
2019-01-29T15:04:06.463Z,1.70
2019-01-29T15:06:35.890Z,1.70
2019-01-29T15:09:10.323Z,1.70
2019-01-29T15:11:39.785Z,1.70
2019-01-29T15:14:09.337Z,1.70
2019-01-29T15:16:57.767Z,1.70
2019-01-29T15:19:29.059Z,1.70
2019-01-29T15:21:58.426Z,1.60
2019-01-29T15:24:27.797Z,1.60
2019-01-29T15:27:05.100Z,1.60
2019-01-29T15:29:28.558Z,1.60
2019-01-29T15:31:58.163Z,1.60
2019-01-29T15:34:27.694Z,1.60
2019-01-29T15:36:57.164Z,1.60
2019-01-29T15:39:26.629Z,1.60
2019-01-29T15:41:55.948Z,1.50
2019-01-29T15:44:25.383Z,1.50
2019-01-29T15:46:54.910Z,1.50
2019-01-29T15:49:24.300Z,1.50
2019-01-29T15:51:53.707Z,1.50
2019-01-29T15:54:23.061Z,1.50
2019-01-29T15:56:52.552Z,1.50
2019-01-29T15:59:21.979Z,1.50
2019-01-29T16:01:51.542Z,1.50
2019-01-29T16:04:21.030Z,1.40
2019-01-29T16:06:50.439Z,1.40
2019-01-29T16:09:19.787Z,1.40
2019-01-29T16:11:49.223Z,1.40
2019-01-29T16:14:18.654Z,1.40
2019-01-29T16:16:48.065Z,1.40
2019-01-29T16:19:17.690Z,1.30
2019-01-29T16:21:47.170Z,1.30
2019-01-29T16:24:16.640Z,1.30
2019-01-29T16:26:46.187Z,1.30
2019-01-29T16:29:15.510Z,1.30
2019-01-29T16:31:44.887Z,1.30
2019-01-29T16:34:14.257Z,1.30
2019-01-29T16:36:43.722Z,1.30
2019-01-29T16:39:13.178Z,1.30
2019-01-29T16:41:42.519Z,1.30
2019-01-29T16:44:12.207Z,1.30
2019-01-29T16:46:41.675Z,1.30
2019-01-29T16:49:11.076Z,1.30
2019-01-29T16:51:42.615Z,1.30
2019-01-29T16:54:11.602Z,1.20
2019-01-29T16:56:41.079Z,1.20
2019-01-29T16:59:10.558Z,1.20
2019-01-29T17:01:39.951Z,1.20
2019-01-29T17:04:09.327Z,1.20
2019-01-29T17:06:38.725Z,1.20
2019-01-29T17:09:11.154Z,1.20
2019-01-29T17:11:40.555Z,1.20
2019-01-29T17:14:10.012Z,1.20
2019-01-29T17:16:39.537Z,1.20
2019-01-29T17:19:08.976Z,1.20
2019-01-29T17:21:38.434Z,1.20
2019-01-29T17:24:07.890Z,1.20
2019-01-29T17:26:37.319Z,1.20
2019-01-29T17:29:06.853Z,1.20
2019-01-29T17:31:36.221Z,1.20
2019-01-29T17:34:05.929Z,1.20
2019-01-29T17:36:35.306Z,1.20
2019-01-29T17:39:07.715Z,1.10
2019-01-29T17:41:37.194Z,1.20
2019-01-29T17:44:06.977Z,1.10
2019-01-29T17:46:36.403Z,1.10
2019-01-29T17:49:05.842Z,1.10
2019-01-29T17:51:35.242Z,1.10
2019-01-29T17:54:04.954Z,1.10
2019-01-29T17:56:34.286Z,1.10
2019-01-29T17:59:03.719Z,1.10
2019-01-29T18:01:33.156Z,1.00
2019-01-29T18:04:02.515Z,1.00
2019-01-29T18:06:31.934Z,1.00
2019-01-29T18:09:01.300Z,1.00
2019-01-29T18:11:30.761Z,1.00
2019-01-29T18:14:00.166Z,0.90
2019-01-29T18:16:29.589Z,1.00
2019-01-29T18:18:58.918Z,1.00
2019-01-29T18:21:28.327Z,1.00
2019-01-29T18:23:57.706Z,1.00
2019-01-29T18:26:27.263Z,1.00
2019-01-29T18:28:56.581Z,0.90
2019-01-29T18:31:26.069Z,0.90
2019-01-29T18:33:56.408Z,0.90
2019-01-29T18:36:26.010Z,0.90
2019-01-29T18:38:55.364Z,0.90
2019-01-29T18:41:24.830Z,0.90
2019-01-29T18:43:54.222Z,0.90
2019-01-29T18:46:23.682Z,0.90
2019-01-29T18:48:53.235Z,0.80
2019-01-29T18:51:22.632Z,0.80
2019-01-29T18:53:52.094Z,0.80
2019-01-29T18:56:21.562Z,0.80
2019-01-29T18:58:51.336Z,0.80
2019-01-29T19:01:20.683Z,0.80
2019-01-29T19:03:53.108Z,0.80
2019-01-29T19:06:22.589Z,0.80
2019-01-29T19:08:52.158Z,0.70
2019-01-29T19:11:21.523Z,0.70
2019-01-29T19:13:50.975Z,0.70
2019-01-29T19:16:20.444Z,0.70
2019-01-29T19:18:49.779Z,0.70
2019-01-29T19:21:19.177Z,0.70
2019-01-29T19:23:48.637Z,0.60
2019-01-29T19:26:18.031Z,0.70
2019-01-29T19:28:47.629Z,0.60
2019-01-29T19:31:17.039Z,0.60
2019-01-29T19:33:46.574Z,0.60
2019-01-29T19:36:16.002Z,0.60
2019-01-29T19:38:45.471Z,0.60
2019-01-29T19:41:15.090Z,0.70
2019-01-29T19:43:44.411Z,0.60
2019-01-29T19:46:13.801Z,0.60
2019-01-29T19:48:43.272Z,0.60
2019-01-29T19:51:12.654Z,0.60
2019-01-29T19:53:42.015Z,0.60
2019-01-29T19:56:11.486Z,0.50
2019-01-29T19:58:40.809Z,0.60
2019-01-29T20:01:10.258Z,0.50
2019-01-29T20:03:39.602Z,0.50
2019-01-29T20:06:08.978Z,0.50
2019-01-29T20:08:38.606Z,0.60
2019-01-29T20:11:08.235Z,0.50
2019-01-29T20:13:39.282Z,0.50
2019-01-29T20:16:08.779Z,0.50
2019-01-29T20:18:38.251Z,0.50
2019-01-29T20:21:07.702Z,0.50
2019-01-29T20:23:37.174Z,0.50
2019-01-29T20:26:06.617Z,0.50
2019-01-29T20:28:42.188Z,0.50
2019-01-29T20:31:07.233Z,0.50
2019-01-29T20:33:36.686Z,0.40
2019-01-29T20:36:07.278Z,0.40
2019-01-29T20:38:36.903Z,0.40
2019-01-29T20:41:06.279Z,0.40
2019-01-29T20:43:35.674Z,0.40
2019-01-29T20:46:05.550Z,0.40
2019-01-29T20:48:35.998Z,0.40
2019-01-29T20:51:05.322Z,0.40
2019-01-29T20:53:34.766Z,0.40
2019-01-29T20:56:04.278Z,0.40
2019-01-29T20:58:33.777Z,0.30
2019-01-29T21:01:03.442Z,0.40
2019-01-29T21:03:32.893Z,0.30
2019-01-29T21:06:02.538Z,0.30
2019-01-29T21:08:31.946Z,0.30
2019-01-29T21:11:01.480Z,0.30
2019-01-29T21:13:30.906Z,0.30
2019-01-29T21:16:00.262Z,0.30
2019-01-29T21:18:29.722Z,0.30
2019-01-29T21:20:59.114Z,0.30
2019-01-29T21:23:28.526Z,0.30
2019-01-29T21:25:57.971Z,0.30
2019-01-29T21:28:27.563Z,0.30
2019-01-29T21:30:57.050Z,0.20
2019-01-29T21:33:26.380Z,0.20
2019-01-29T21:35:55.813Z,0.20
2019-01-29T21:38:25.193Z,0.10
2019-01-29T21:40:54.665Z,0.10
2019-01-29T21:43:24.133Z,0.10
2019-01-29T21:45:53.551Z,0.10
2019-01-29T21:48:22.963Z,0.10
2019-01-29T21:50:56.705Z,0.10
2019-01-29T21:53:28.430Z,0.10
2019-01-29T21:56:00.403Z,0.10
2019-01-29T21:58:29.858Z,0.10
2019-01-29T22:00:59.282Z,0.10
2019-01-29T22:03:28.572Z,0.00
2019-01-29T22:05:58.194Z,0.00
2019-01-29T22:08:27.526Z,0.00
2019-01-29T22:10:56.931Z,0.00
2019-01-29T22:13:26.382Z,-0.10
2019-01-29T22:15:55.718Z,-0.10
2019-01-29T22:18:25.206Z,-0.10
2019-01-29T22:20:54.855Z,-0.10
2019-01-29T22:23:24.380Z,-0.20
2019-01-29T22:25:53.798Z,-0.30
2019-01-29T22:28:23.173Z,-0.30
2019-01-29T22:30:52.586Z,-0.30
2019-01-29T22:33:22.002Z,-0.40
2019-01-29T22:35:51.403Z,-0.40
2019-01-29T22:38:20.793Z,-0.40
2019-01-29T22:40:50.358Z,-0.50
2019-01-29T22:43:19.775Z,-0.50
2019-01-29T22:45:49.179Z,-0.60
2019-01-29T22:48:18.613Z,-0.60
2019-01-29T22:50:48.038Z,-0.70
2019-01-29T22:53:17.377Z,-0.70
2019-01-29T22:55:46.825Z,-0.70
2019-01-29T22:58:16.539Z,-0.70
2019-01-29T23:01:09.998Z,-0.70
2019-01-29T23:03:49.229Z,-0.80
2019-01-29T23:06:22.977Z,-0.80
2019-01-29T23:08:52.580Z,-0.80
2019-01-29T23:11:21.940Z,-0.90
2019-01-29T23:13:51.613Z,-0.90
2019-01-29T23:16:21.350Z,-1.00
2019-01-29T23:18:50.706Z,-1.00
2019-01-29T23:21:20.305Z,-1.00
2019-01-29T23:23:49.707Z,-1.10
2019-01-29T23:26:19.192Z,-1.10
2019-01-29T23:28:48.607Z,-1.10
2019-01-29T23:31:17.957Z,-1.20
2019-01-29T23:33:47.375Z,-1.20
2019-01-29T23:36:18.607Z,-1.30
2019-01-29T23:38:48.238Z,-1.40
2019-01-29T23:41:17.714Z,-1.40
2019-01-29T23:43:47.197Z,-1.40
2019-01-29T23:46:16.594Z,-1.40
2019-01-29T23:48:45.994Z,-1.50
2019-01-29T23:51:15.474Z,-1.50
2019-01-29T23:53:44.857Z,-1.50
2019-01-29T23:56:14.307Z,-1.60
2019-01-29T23:58:43.835Z,-1.60
